首页
METAR-TAF:

METAR-TAF

机场 :

Naval Air Station Whidbey Island (Ault Field)

橡港, 华盛顿, 美国

纬度: 48-20-57N, 经度: 122-39-02W, 海拔: 14米

当前天气观测

该预报发布于35分钟前的12:56 UTC
静风
温度 12°C
湿度 82%
气压 1016 hPa
能見度: 16.1公里
少量云层高于2000英尺
少量云层高于4000英尺
多云层高于10000英尺
多云层高于25000英尺

METAR: KNUW 221256Z 00000KT 10SM FEW020 FEW040 BKN100 BKN250 12/09 A3000 RMK AO2 SLP157 T01220089 $

时间: 06:31 (13:31 UTC)

预报

预报有效从22日的 07点(UTC)到 23日的 07点(UTC)
风速6节,风向多变
能见度10公里或以上
少量云层高于2500英尺
多云层高于12000英尺
多云层高于20000英尺
短暂存在
从 22日的 13点(UTC)到 22日的 19点(UTC)
能见度10公里或以上
多云层高于500英尺
多云层高于1500英尺
多云层高于20000英尺
浅雾
从 22日的 1900点(UTC)
风速6节,风向西北
散云层高于2000英尺
少量云层高于10000英尺
少量云层高于25000英尺
从 23日的 0100点(UTC)
风速6节,风向多变
能见度10公里或以上
少量云层高于3000英尺
多云层高于10000英尺
短暂存在
从 23日的 02点(UTC)到 23日的 07点(UTC)
能見度: 9000
少量云层高于200英尺
少量云层高于9000英尺
散云层高于12000英尺
轻雾

TAF: KNUW 2207/2307 VRB06KT 9999 FEW025 BKN120 BKN200 QNH2984INS TEMPO 2213/2219 9999 MIFG BKN005 BKN015 BKN200 FM221900 32006KT SCT020 FEW100 FEW250 QNH2990INS FM230100 VRB06KT 9999 FEW030 BKN100 QNH2996INS TEMPO 2302/2307 9000 BR FEW002 FEW090 SCT120 T08/2213Z T16/2223Z FS30135

超过4000个机场的气象观测和天气预报(METAR&TAF报告)。

可查询的气象台以黄色和红色小点在地图上表示。

将鼠标移到小点上方,可查看气象台名称。

然后点击查看天气观测和预报。

如需切换地图:点击带黑十字的绿色按钮放大地图;点击带横线的绿色按钮缩小地图;或者点击绿色箭头查看邻近地区的地图。


METAR-TAF: